• Join FlightAware (Why Join?)
  • Login
  • US Flag GB Flag 
08:51 EDT


 

Airport Tracker/Info


-or-


 

Live Flight TrackerFlight Track Log ✈ N1926A ✈ 28-Apr-2013 ✈ 41A - KMGM

Flight Track Log - Related Links

Times and Time Zones

All times are in EDT time to prevent confusion due to time zone crossing. See the N1926A flight status page for this flight to view local times or setup timezone preferences in your user account.

Time Position Orientation Groundspeed Altitude Reporting Facility
EDT Latitude Longitude Course Direction KTS MPH feet Rate Location/Type
20:03 32.4045 -86.1017 246° West  Level FlightAware Approximate
20:04 32.3893 -86.1413 246° West  Level FlightAware Approximate
20:05 32.3741 -86.1808 245° Southwest  Level FlightAware Approximate
20:06 32.3639 -86.2213 235° Southwest  Level FlightAware Approximate
20:07 32.3426 -86.2567 235° Southwest  Level FlightAware Approximate
20:08 32.3214 -86.2922 235° Southwest  Level FlightAware Approximate
20:09 32.3101 -86.3329 257° West  Level FlightAware Approximate
20:10 32.3016 -86.3752 257° West  Level FlightAware Approximate
20:11 32.3000 -86.3833 257° West  Level FlightAware Approximate
20:12 32.3006 -86.3940 257° West  Level Estimated
20:13 32.3006 -86.3940 257° West  Level Estimated
20:14 32.3006 -86.3940 257° West  Level Estimated
20:15 32.3006 -86.3940 257° West  Level Estimated
20:16 32.3006 -86.3940 257° West  Level Estimated
20:17 32.3006 -86.3940 257° West  Level Estimated
20:18 32.3006 -86.3940 257° West  Level Estimated
20:19 32.3006 -86.3940 257° West  Level Estimated
20:20 32.3006 -86.3940 257° West  Level Estimated
20:21 32.3006 -86.3940 257° West  Level Estimated
20:22 32.3006 -86.3940 257° West  Level Estimated
20:23 32.3006 -86.3940 257° West  Level Estimated
20:24 32.3006 -86.3940 257° West  Level Estimated
20:25 32.3006 -86.3940 257° West  Level Estimated
20:26 32.3006 -86.3940 257° West  Level Estimated